Terminal Aerodrome Forecast
Issued by NWS Binghamton, NY

Home | Current Version | Previous Version | Text Only | Print | Product List | Glossary On
Versions: 1 2 3 4 5 6 7 8 9 10 11 12 13 14 15 16 17 18
579
FTUS41 KBGM 081137
TAFBGM
TAF
KBGM 081137Z 0812/0912 23005KT P6SM OVC060
     FM081700 27010G18KT P6SM BKN030
      TEMPO 0819/0823 2SM -SHSN OVC018
     FM090100 28010G18KT P6SM BKN060
     FM090800 29012G21KT 4SM -SHSN OVC030=

USA.gov is the U.S. government's official web portal to all federal, state and local government web resources and services.